createdAt,value
2023-03-22T00:00:31.034Z,1610.00
2023-03-22T00:01:31.061Z,1621.00
2023-03-22T00:02:31.032Z,1609.00
2023-03-22T00:03:31.042Z,1612.00
2023-03-22T00:04:30.992Z,1608.00
2023-03-22T00:05:30.990Z,1601.00
2023-03-22T00:06:30.972Z,1599.00
2023-03-22T00:07:30.957Z,1606.00
2023-03-22T00:08:30.957Z,1593.00
2023-03-22T00:09:30.941Z,1595.00
2023-03-22T00:10:30.924Z,1591.00
2023-03-22T00:11:30.928Z,1602.00
2023-03-22T00:12:30.897Z,1603.00
2023-03-22T00:13:30.894Z,1585.00
2023-03-22T00:14:30.874Z,1606.00
2023-03-22T00:15:30.873Z,1586.00
2023-03-22T00:16:30.875Z,1586.00
2023-03-22T00:17:30.836Z,1587.00
2023-03-22T00:18:30.832Z,1588.00
2023-03-22T00:19:30.818Z,1574.00
2023-03-22T00:20:30.801Z,1582.00
2023-03-22T00:21:30.792Z,1580.00
2023-03-22T00:22:30.785Z,1575.00
2023-03-22T00:23:30.760Z,1586.00
2023-03-22T00:24:30.763Z,1575.00
2023-03-22T00:25:30.742Z,1571.00
2023-03-22T00:26:30.713Z,1572.00
2023-03-22T00:27:30.696Z,1577.00
2023-03-22T00:28:30.681Z,1566.00
2023-03-22T00:29:30.668Z,1576.00
2023-03-22T00:30:30.647Z,1566.00
2023-03-22T00:31:30.755Z,1571.00
2023-03-22T00:32:30.628Z,1580.00
2023-03-22T00:33:30.605Z,1564.00
2023-03-22T00:34:30.584Z,1545.00
2023-03-22T00:35:30.604Z,1557.00
2023-03-22T00:36:30.562Z,1550.00
2023-03-22T00:37:30.544Z,1558.00
2023-03-22T00:38:41.624Z,1556.00
2023-03-22T00:39:31.522Z,1557.00
2023-03-22T00:40:30.512Z,1557.00
2023-03-22T00:41:30.501Z,1560.00
2023-03-22T00:42:30.484Z,1554.00
2023-03-22T00:43:30.471Z,1560.00
2023-03-22T00:44:30.471Z,1554.00
2023-03-22T00:45:30.470Z,1546.00
2023-03-22T00:46:30.487Z,1548.00
2023-03-22T00:47:30.442Z,1551.00
2023-03-22T00:48:30.413Z,1545.00
2023-03-22T00:49:30.401Z,1533.00
2023-03-22T00:50:30.394Z,1534.00
2023-03-22T00:51:30.366Z,1538.00
2023-03-22T00:52:30.352Z,1532.00
2023-03-22T00:53:30.338Z,1537.00
2023-03-22T00:54:30.320Z,1531.00
2023-03-22T00:55:30.312Z,1523.00
2023-03-22T00:56:30.307Z,1524.00
2023-03-22T00:57:30.281Z,1523.00
2023-03-22T00:58:30.273Z,1514.00
2023-03-22T00:59:30.246Z,1517.00
2023-03-22T01:00:30.240Z,1519.00
2023-03-22T01:01:30.314Z,1511.00
2023-03-22T01:02:30.215Z,1522.00
2023-03-22T01:03:30.273Z,1503.00
2023-03-22T01:04:30.176Z,1518.00
2023-03-22T01:05:30.161Z,1511.00
2023-03-22T01:06:30.158Z,1508.00
2023-03-22T01:07:30.157Z,1518.00
2023-03-22T01:08:30.134Z,1502.00
2023-03-22T01:09:30.103Z,1514.00
2023-03-22T01:10:30.110Z,1520.00
2023-03-22T01:11:30.091Z,1507.00
2023-03-22T01:12:30.091Z,1511.00
2023-03-22T01:13:30.067Z,1505.00
2023-03-22T01:14:30.071Z,1501.00
2023-03-22T01:15:30.041Z,1506.00
2023-03-22T01:16:30.089Z,1501.00
2023-03-22T01:17:30.017Z,1499.00
2023-03-22T01:18:30.013Z,1498.00
2023-03-22T01:19:29.990Z,1486.00
2023-03-22T01:20:30.015Z,1480.00
2023-03-22T01:21:29.972Z,1487.00
2023-03-22T01:22:29.950Z,1490.00
2023-03-22T01:23:29.945Z,1477.00
2023-03-22T01:24:29.919Z,1471.00
2023-03-22T01:25:29.904Z,1478.00
2023-03-22T01:26:29.893Z,1487.00
2023-03-22T01:27:29.891Z,1481.00
2023-03-22T01:28:29.874Z,1481.00
2023-03-22T01:29:29.855Z,1485.00
2023-03-22T01:30:29.935Z,1473.00
2023-03-22T01:31:29.827Z,1462.00
2023-03-22T01:32:29.814Z,1466.00
2023-03-22T01:33:29.815Z,1476.00
2023-03-22T01:34:29.785Z,1477.00
2023-03-22T01:35:29.788Z,1477.00
2023-03-22T01:36:29.733Z,1476.00
2023-03-22T01:37:29.733Z,1473.00
2023-03-22T01:38:29.727Z,1465.00
2023-03-22T01:39:29.698Z,1472.00
2023-03-22T01:40:29.684Z,1455.00
2023-03-22T01:41:29.664Z,1459.00
2023-03-22T01:42:29.653Z,1465.00
2023-03-22T01:43:29.633Z,1459.00
2023-03-22T01:44:29.623Z,1455.00
2023-03-22T01:45:29.600Z,1450.00
2023-03-22T01:46:29.611Z,1450.00
2023-03-22T01:47:29.561Z,1445.00
2023-03-22T01:48:29.549Z,1453.00
2023-03-22T01:49:29.534Z,1441.00
2023-03-22T01:50:29.504Z,1452.00
2023-03-22T01:51:29.504Z,1431.00
2023-03-22T01:52:29.476Z,1426.00
2023-03-22T01:53:29.453Z,1435.00
2023-03-22T01:54:29.429Z,1449.00
2023-03-22T01:55:29.433Z,1435.00
2023-03-22T01:56:29.383Z,1427.00
2023-03-22T01:57:29.376Z,1428.00
2023-03-22T01:58:29.379Z,1445.00
2023-03-22T01:59:29.338Z,1422.00
2023-03-22T02:00:29.322Z,1423.00
2023-03-22T02:01:29.336Z,1425.00
2023-03-22T02:02:29.324Z,1427.00
2023-03-22T02:03:29.294Z,1436.00
2023-03-22T02:04:29.259Z,1436.00
2023-03-22T02:05:29.244Z,1435.00
2023-03-22T02:06:29.255Z,1429.00
2023-03-22T02:07:29.222Z,1424.00
2023-03-22T02:08:29.203Z,1436.00
2023-03-22T02:09:29.191Z,1419.00
2023-03-22T02:10:29.182Z,1422.00
2023-03-22T02:11:29.177Z,1413.00
2023-03-22T02:12:29.190Z,1416.00
2023-03-22T02:13:29.155Z,1395.00
2023-03-22T02:14:29.148Z,1419.00
2023-03-22T02:15:29.290Z,1412.00
2023-03-22T02:16:29.159Z,1425.00
2023-03-22T02:17:29.130Z,1411.00
2023-03-22T02:18:29.104Z,1409.00
2023-03-22T02:19:29.106Z,1410.00
2023-03-22T02:20:29.081Z,1408.00
2023-03-22T02:21:29.086Z,1405.00
2023-03-22T02:22:29.072Z,1418.00
2023-03-22T02:23:29.082Z,1392.00
2023-03-22T02:24:29.059Z,1399.00
2023-03-22T02:25:29.053Z,1396.00
2023-03-22T02:26:29.042Z,1406.00
2023-03-22T02:27:29.023Z,1398.00
2023-03-22T02:28:29.022Z,1389.00
2023-03-22T02:29:29.009Z,1397.00
2023-03-22T02:30:28.981Z,1388.00
2023-03-22T02:31:29.010Z,1383.00
2023-03-22T02:32:28.954Z,1384.00
2023-03-22T02:33:28.950Z,1394.00
2023-03-22T02:34:28.949Z,1379.00
2023-03-22T02:35:28.951Z,1391.00
2023-03-22T02:36:28.920Z,1385.00
2023-03-22T02:37:28.888Z,1389.00
2023-03-22T02:38:28.887Z,1383.00
2023-03-22T02:39:28.873Z,1380.00
2023-03-22T02:40:28.852Z,1375.00
2023-03-22T02:41:28.825Z,1373.00
2023-03-22T02:42:28.808Z,1371.00
2023-03-22T02:43:28.801Z,1358.00
2023-03-22T02:44:28.790Z,1367.00
2023-03-22T02:45:28.773Z,1376.00
2023-03-22T02:46:28.773Z,1365.00
2023-03-22T02:47:28.723Z,1368.00
2023-03-22T02:48:28.712Z,1355.00
2023-03-22T02:49:28.701Z,1364.00
2023-03-22T02:50:28.722Z,1366.00
2023-03-22T02:51:28.669Z,1364.00
2023-03-22T02:52:28.664Z,1365.00
2023-03-22T02:53:28.636Z,1365.00
2023-03-22T02:54:28.609Z,1367.00
2023-03-22T02:55:28.604Z,1363.00
2023-03-22T02:56:28.568Z,1352.00
2023-03-22T02:57:28.598Z,1365.00
2023-03-22T02:58:28.555Z,1360.00
2023-03-22T02:59:28.552Z,1349.00
2023-03-22T03:00:28.617Z,1356.00
2023-03-22T03:01:28.519Z,1351.00
2023-03-22T03:02:28.578Z,1356.00
2023-03-22T03:03:28.496Z,1341.00
2023-03-22T03:04:28.492Z,1340.00
2023-03-22T03:05:28.485Z,1347.00
2023-03-22T03:06:28.455Z,1344.00
2023-03-22T03:07:28.465Z,1348.00
2023-03-22T03:08:28.428Z,1341.00
2023-03-22T03:09:28.433Z,1343.00
2023-03-22T03:10:28.394Z,1348.00
2023-03-22T03:11:28.388Z,1338.00
2023-03-22T03:12:28.365Z,1344.00
2023-03-22T03:13:28.361Z,1321.00
2023-03-22T03:14:28.334Z,1338.00
2023-03-22T03:15:28.320Z,1323.00
2023-03-22T03:16:28.395Z,1324.00
2023-03-22T03:17:28.312Z,1329.00
2023-03-22T03:18:28.318Z,1321.00
2023-03-22T03:19:28.312Z,1316.00
2023-03-22T03:20:28.299Z,1320.00
2023-03-22T03:21:28.281Z,1313.00
2023-03-22T03:22:28.278Z,1326.00
2023-03-22T03:23:28.279Z,1302.00
2023-03-22T03:24:28.255Z,1310.00
2023-03-22T03:25:28.245Z,1316.00
2023-03-22T03:26:28.261Z,1324.00
2023-03-22T03:27:28.244Z,1322.00
2023-03-22T03:28:28.219Z,1318.00
2023-03-22T03:29:28.222Z,1309.00
2023-03-22T03:30:28.197Z,1305.00
2023-03-22T03:31:28.246Z,1307.00
2023-03-22T03:32:28.179Z,1313.00
2023-03-22T03:33:28.172Z,1297.00
2023-03-22T03:34:28.165Z,1293.00
2023-03-22T03:35:28.211Z,1298.00
2023-03-22T03:36:28.139Z,1307.00
2023-03-22T03:37:28.129Z,1301.00
2023-03-22T03:38:28.131Z,1299.00
2023-03-22T03:39:28.106Z,1300.00
2023-03-22T03:40:28.101Z,1302.00
2023-03-22T03:41:28.079Z,1297.00
2023-03-22T03:42:28.070Z,1277.00
2023-03-22T03:43:28.126Z,1284.00
2023-03-22T03:44:28.057Z,1292.00
2023-03-22T03:45:28.077Z,1304.00
2023-03-22T03:46:28.054Z,1292.00
2023-03-22T03:47:28.029Z,1277.00
2023-03-22T03:48:28.106Z,1295.00
2023-03-22T03:49:28.029Z,1287.00
2023-03-22T03:50:28.497Z,1293.00
2023-03-22T03:51:28.002Z,1274.00
2023-03-22T03:52:27.996Z,1285.00
2023-03-22T03:53:27.998Z,1283.00
2023-03-22T03:54:27.984Z,1265.00
2023-03-22T03:55:27.991Z,1287.00
2023-03-22T03:56:28.048Z,1271.00
2023-03-22T03:57:27.965Z,1278.00
2023-03-22T03:58:27.941Z,1269.00
2023-03-22T03:59:27.939Z,1283.00
2023-03-22T04:00:27.953Z,1274.00
2023-03-22T04:01:27.910Z,1275.00
2023-03-22T04:02:27.950Z,1275.00
2023-03-22T04:03:27.886Z,1277.00
2023-03-22T04:04:27.905Z,1284.00
2023-03-22T04:05:27.851Z,1283.00
2023-03-22T04:06:27.853Z,1268.00
2023-03-22T04:07:27.837Z,1280.00
2023-03-22T04:08:27.833Z,1275.00
2023-03-22T04:09:27.823Z,1269.00
2023-03-22T04:10:27.862Z,1276.00
2023-03-22T04:11:27.818Z,1264.00
2023-03-22T04:12:27.792Z,1271.00
2023-03-22T04:13:27.796Z,1264.00
2023-03-22T04:14:27.806Z,1251.00
2023-03-22T04:15:28.231Z,1254.00
2023-03-22T04:16:27.815Z,1257.00
2023-03-22T04:17:27.760Z,1251.00
2023-03-22T04:18:27.753Z,1245.00
2023-03-22T04:19:27.759Z,1240.00
2023-03-22T04:20:28.070Z,1261.00
2023-03-22T04:21:27.739Z,1253.00
2023-03-22T04:22:27.741Z,1254.00
2023-03-22T04:23:27.743Z,1247.00
2023-03-22T04:24:27.735Z,1252.00
2023-03-22T04:25:27.718Z,1247.00
2023-03-22T04:26:27.737Z,1235.00
2023-03-22T04:27:27.704Z,1244.00
2023-03-22T04:28:27.708Z,1238.00
2023-03-22T04:29:27.702Z,1234.00
2023-03-22T04:30:27.717Z,1235.00
2023-03-22T04:31:27.724Z,1233.00
2023-03-22T04:32:27.694Z,1223.00
2023-03-22T04:33:27.674Z,1236.00
2023-03-22T04:34:27.696Z,1236.00
2023-03-22T04:35:27.691Z,1238.00
2023-03-22T04:36:27.683Z,1229.00
2023-03-22T04:37:27.638Z,1235.00
2023-03-22T04:38:27.620Z,1222.00
2023-03-22T04:39:27.620Z,1217.00
2023-03-22T04:40:27.609Z,1213.00
2023-03-22T04:41:28.602Z,1229.00
2023-03-22T04:42:27.590Z,1229.00
2023-03-22T04:43:27.586Z,1217.00
2023-03-22T04:44:27.578Z,1214.00
2023-03-22T04:45:27.553Z,1218.00
2023-03-22T04:46:27.612Z,1226.00
2023-03-22T04:47:27.538Z,1222.00
2023-03-22T04:48:27.529Z,1215.00
2023-03-22T04:49:27.510Z,1210.00
2023-03-22T04:50:27.510Z,1211.00
2023-03-22T04:51:27.500Z,1203.00
2023-03-22T04:52:27.487Z,1216.00
2023-03-22T04:53:27.682Z,1198.00
2023-03-22T04:54:27.464Z,1217.00
2023-03-22T04:55:27.455Z,1206.00
2023-03-22T04:56:27.439Z,1211.00
2023-03-22T04:57:27.420Z,1217.00
2023-03-22T04:58:27.422Z,1206.00
2023-03-22T04:59:27.438Z,1205.00
2023-03-22T05:00:27.390Z,1198.00
2023-03-22T05:01:27.417Z,1184.00
2023-03-22T05:02:27.437Z,1198.00
2023-03-22T05:03:27.345Z,1180.00
2023-03-22T05:04:27.348Z,1183.00
2023-03-22T05:05:27.313Z,1206.00
2023-03-22T05:06:27.318Z,1181.00
2023-03-22T05:07:27.310Z,1182.00
2023-03-22T05:08:27.290Z,1173.00
2023-03-22T05:09:27.278Z,1194.00
2023-03-22T05:10:27.291Z,1192.00
2023-03-22T05:11:27.282Z,1187.00
2023-03-22T05:12:27.254Z,1170.00
2023-03-22T05:13:27.259Z,1187.00
2023-03-22T05:14:27.312Z,1180.00
2023-03-22T05:15:27.246Z,1189.00
2023-03-22T05:16:27.292Z,1168.00
2023-03-22T05:17:27.217Z,1158.00
2023-03-22T05:18:27.197Z,1179.00
2023-03-22T05:19:27.197Z,1179.00
2023-03-22T05:20:27.203Z,1167.00
2023-03-22T05:21:27.204Z,1166.00
2023-03-22T05:22:27.198Z,1175.00
2023-03-22T05:23:27.198Z,1163.00
2023-03-22T05:24:27.197Z,1173.00
2023-03-22T05:25:27.203Z,1144.00
2023-03-22T05:26:27.205Z,1140.00
2023-03-22T05:27:27.182Z,1154.00
2023-03-22T05:28:27.188Z,1168.00
2023-03-22T05:29:27.176Z,1164.00
2023-03-22T05:30:27.172Z,1157.00
2023-03-22T05:31:27.212Z,1161.00
2023-03-22T05:32:27.190Z,1151.00
2023-03-22T05:33:27.148Z,1163.00
2023-03-22T05:34:27.153Z,1159.00
2023-03-22T05:35:27.166Z,1144.00
2023-03-22T05:36:27.156Z,1147.00
2023-03-22T05:37:27.161Z,1156.00
2023-03-22T05:38:27.134Z,1142.00
2023-03-22T05:39:27.131Z,1135.00
2023-03-22T05:40:27.149Z,1135.00
2023-03-22T05:41:27.126Z,1136.00
2023-03-22T05:42:27.157Z,1137.00
2023-03-22T05:43:27.109Z,1144.00
2023-03-22T05:44:27.100Z,1136.00
2023-03-22T05:45:27.115Z,1166.00
2023-03-22T05:46:27.209Z,1154.00
2023-03-22T05:47:27.106Z,1148.00
2023-03-22T05:48:27.105Z,1145.00
2023-03-22T05:49:27.100Z,1114.00
2023-03-22T05:50:27.087Z,1138.00
2023-03-22T05:51:27.081Z,1144.00
2023-03-22T05:52:27.080Z,1118.00
2023-03-22T05:53:27.077Z,1140.00
2023-03-22T05:54:27.087Z,1122.00
2023-03-22T05:55:27.093Z,1124.00
2023-03-22T05:56:27.091Z,1117.00
2023-03-22T05:57:27.094Z,1109.00
2023-03-22T05:58:27.089Z,1121.00
2023-03-22T05:59:27.069Z,1122.00
2023-03-22T06:00:27.069Z,1097.00
2023-03-22T06:01:27.083Z,1127.00
2023-03-22T06:02:27.074Z,1130.00
2023-03-22T06:03:27.102Z,1122.00
2023-03-22T06:04:27.039Z,1109.00
2023-03-22T06:05:27.034Z,1107.00
2023-03-22T06:06:27.048Z,1122.00
2023-03-22T06:07:27.039Z,1105.00
2023-03-22T06:08:27.037Z,1117.00
2023-03-22T06:09:27.022Z,1109.00
2023-03-22T06:10:27.020Z,1111.00
2023-03-22T06:11:27.010Z,1096.00
2023-03-22T06:12:29.611Z,1098.00
2023-03-22T06:13:27.001Z,1100.00
2023-03-22T06:14:26.994Z,1098.00
2023-03-22T06:15:26.987Z,1100.00
2023-03-22T06:16:26.994Z,1095.00
2023-03-22T06:17:26.986Z,1097.00
2023-03-22T06:18:26.970Z,1117.00
2023-03-22T06:19:26.958Z,1097.00
2023-03-22T06:20:26.954Z,1098.00
2023-03-22T06:21:26.950Z,1102.00
2023-03-22T06:22:27.004Z,1102.00
2023-03-22T06:23:26.949Z,1090.00
2023-03-22T06:24:26.948Z,1093.00
2023-03-22T06:25:26.954Z,1099.00
2023-03-22T06:26:26.952Z,1072.00
2023-03-22T06:27:26.960Z,1088.00
2023-03-22T06:28:26.944Z,1100.00
2023-03-22T06:29:26.943Z,1087.00
2023-03-22T06:30:27.011Z,1088.00
2023-03-22T06:31:26.955Z,1093.00
2023-03-22T06:32:27.001Z,1090.00
2023-03-22T06:33:27.033Z,1091.00
2023-03-22T06:34:26.966Z,1071.00
2023-03-22T06:35:26.997Z,1100.00
2023-03-22T06:36:26.912Z,1108.00
2023-03-22T06:37:26.920Z,1143.00
2023-03-22T06:38:26.976Z,1148.00
2023-03-22T06:39:26.913Z,1171.00
2023-03-22T06:40:26.891Z,1167.00
2023-03-22T06:41:26.903Z,1180.00
2023-03-22T06:42:26.876Z,1190.00
2023-03-22T06:43:26.956Z,1218.00
2023-03-22T06:44:26.864Z,1237.00
2023-03-22T06:45:26.857Z,1232.00
2023-03-22T06:46:26.911Z,1265.00
2023-03-22T06:47:26.901Z,1276.00
2023-03-22T06:48:26.895Z,1299.00
2023-03-22T06:49:26.807Z,1325.00
2023-03-22T06:50:26.797Z,1303.00
2023-03-22T06:51:26.787Z,1278.00
2023-03-22T06:52:26.787Z,1211.00
2023-03-22T06:53:26.771Z,1066.00
2023-03-22T06:54:26.769Z,968.00
2023-03-22T06:55:26.772Z,902.00
2023-03-22T06:56:26.813Z,816.00
2023-03-22T06:57:26.776Z,759.00
2023-03-22T06:58:26.776Z,718.00
2023-03-22T06:59:26.805Z,655.00
2023-03-22T07:00:26.793Z,655.00
2023-03-22T07:01:26.786Z,652.00
2023-03-22T07:02:26.749Z,640.00
2023-03-22T07:03:26.752Z,632.00
2023-03-22T07:04:26.787Z,616.00
2023-03-22T07:05:26.753Z,600.00
2023-03-22T07:06:26.740Z,577.00
2023-03-22T07:07:26.760Z,571.00
2023-03-22T07:08:26.758Z,571.00
2023-03-22T07:09:26.755Z,568.00
2023-03-22T07:10:26.733Z,549.00
2023-03-22T07:11:26.730Z,547.00
2023-03-22T07:12:26.735Z,527.00
2023-03-22T07:13:26.743Z,512.00
2023-03-22T07:14:26.741Z,510.00
2023-03-22T07:15:26.742Z,503.00
2023-03-22T07:16:26.813Z,502.00
2023-03-22T07:17:26.737Z,520.00
2023-03-22T07:18:26.745Z,529.00
2023-03-22T07:19:26.737Z,545.00
2023-03-22T07:20:26.754Z,552.00
2023-03-22T07:21:26.749Z,553.00
2023-03-22T07:22:26.765Z,555.00
2023-03-22T07:23:26.748Z,561.00
2023-03-22T07:24:26.729Z,575.00
2023-03-22T07:25:26.723Z,596.00
2023-03-22T07:26:26.727Z,599.00
2023-03-22T07:27:26.695Z,599.00
2023-03-22T07:28:26.901Z,618.00
2023-03-22T07:29:26.676Z,621.00
2023-03-22T07:30:26.707Z,628.00
2023-03-22T07:31:26.679Z,636.00
2023-03-22T07:32:26.699Z,656.00
2023-03-22T07:33:26.629Z,1433.00
2023-03-22T07:34:26.613Z,1305.00
2023-03-22T07:35:27.118Z,1333.00
2023-03-22T07:36:26.605Z,1198.00
2023-03-22T07:37:26.586Z,1045.00
2023-03-22T07:38:26.570Z,1052.00
2023-03-22T07:39:26.580Z,1010.00
2023-03-22T07:40:26.551Z,1007.00
2023-03-22T07:41:26.546Z,1029.00
2023-03-22T07:42:26.588Z,1055.00
2023-03-22T07:43:26.492Z,1068.00
2023-03-22T07:44:26.493Z,1073.00
2023-03-22T07:45:26.561Z,1102.00
2023-03-22T07:46:26.471Z,1127.00
2023-03-22T07:47:39.839Z,1140.00
2023-03-22T07:48:27.474Z,1142.00
2023-03-22T07:49:26.393Z,1151.00
2023-03-22T07:50:26.390Z,1177.00
2023-03-22T07:51:26.377Z,1219.00
2023-03-22T07:52:26.368Z,1289.00
2023-03-22T07:53:26.364Z,1316.00
2023-03-22T07:54:33.809Z,1368.00
2023-03-22T07:55:27.315Z,1377.00
2023-03-22T07:56:26.398Z,1413.00
2023-03-22T07:57:26.296Z,1458.00
2023-03-22T07:58:26.290Z,1517.00
2023-03-22T07:59:26.241Z,1588.00
2023-03-22T08:00:26.217Z,1602.00
2023-03-22T08:01:26.210Z,1576.00
2023-03-22T08:02:26.303Z,1571.00
2023-03-22T08:03:26.306Z,1573.00
2023-03-22T08:04:26.157Z,1582.00
2023-03-22T08:05:26.157Z,1579.00
2023-03-22T08:06:26.152Z,1587.00
2023-03-22T08:07:26.187Z,1575.00
2023-03-22T08:08:26.097Z,1590.00
2023-03-22T08:09:26.098Z,1576.00
2023-03-22T08:10:26.054Z,1578.00
2023-03-22T08:11:26.035Z,1587.00
2023-03-22T08:12:26.029Z,1609.00
2023-03-22T08:13:26.143Z,1624.00
2023-03-22T08:14:35.889Z,1695.00
2023-03-22T08:15:26.975Z,1697.00
2023-03-22T08:16:26.020Z,1708.00
2023-03-22T08:17:25.944Z,1726.00
2023-03-22T08:18:25.980Z,1752.00
2023-03-22T08:19:25.914Z,1756.00
2023-03-22T08:20:25.949Z,1744.00
2023-03-22T08:21:25.878Z,1732.00
2023-03-22T08:22:25.858Z,1725.00
2023-03-22T08:23:38.437Z,1732.00
2023-03-22T08:24:26.823Z,1733.00
2023-03-22T08:25:25.809Z,1733.00
2023-03-22T08:26:25.783Z,1734.00
2023-03-22T08:27:25.773Z,1722.00
2023-03-22T08:28:25.750Z,1713.00
2023-03-22T08:29:25.744Z,1709.00
2023-03-22T08:30:25.719Z,1740.00
2023-03-22T08:31:25.737Z,1785.00
2023-03-22T08:32:25.675Z,1812.00
2023-03-22T08:33:25.658Z,1797.00
2023-03-22T08:34:25.643Z,1800.00
2023-03-22T08:35:25.698Z,1807.00
2023-03-22T08:36:25.635Z,1813.00
2023-03-22T08:37:25.592Z,1809.00
2023-03-22T08:38:25.618Z,1791.00
2023-03-22T08:39:26.159Z,1609.00
2023-03-22T08:40:25.619Z,817.00
2023-03-22T08:41:25.553Z,501.00
2023-03-22T08:42:25.633Z,431.00
2023-03-22T08:43:25.544Z,406.00
2023-03-22T08:44:25.545Z,457.00
2023-03-22T08:45:25.537Z,511.00
2023-03-22T08:46:25.551Z,539.00
2023-03-22T08:47:25.530Z,529.00
2023-03-22T08:48:25.581Z,515.00
2023-03-22T08:49:25.477Z,494.00
2023-03-22T08:50:25.552Z,506.00
2023-03-22T08:51:25.466Z,541.00
2023-03-22T08:52:25.434Z,590.00
2023-03-22T08:53:25.426Z,716.00
2023-03-22T08:54:25.409Z,811.00
2023-03-22T08:55:25.408Z,817.00
2023-03-22T08:56:25.384Z,853.00
2023-03-22T08:57:25.350Z,926.00
2023-03-22T08:58:25.345Z,1026.00
2023-03-22T08:59:25.382Z,1181.00
2023-03-22T09:00:25.377Z,1267.00
2023-03-22T09:01:25.401Z,1283.00
2023-03-22T09:02:25.407Z,1264.00
2023-03-22T09:03:25.272Z,1228.00
2023-03-22T09:04:25.266Z,1303.00
2023-03-22T09:05:25.327Z,1377.00
2023-03-22T09:06:25.192Z,1361.00
2023-03-22T09:07:25.232Z,1236.00
2023-03-22T09:08:25.212Z,1113.00
2023-03-22T09:09:25.158Z,1055.00
2023-03-22T09:10:25.281Z,997.00
2023-03-22T09:11:25.169Z,1126.00
2023-03-22T09:12:25.088Z,1235.00
2023-03-22T09:13:25.227Z,1175.00
2023-03-22T09:14:25.066Z,1086.00
2023-03-22T09:15:25.052Z,930.00
2023-03-22T09:16:25.072Z,936.00
2023-03-22T09:17:25.001Z,624.00
2023-03-22T09:18:24.992Z,452.00
2023-03-22T09:19:25.008Z,400.00
2023-03-22T09:20:24.966Z,400.00
2023-03-22T09:21:24.952Z,400.00
2023-03-22T09:22:24.931Z,400.00
2023-03-22T09:23:24.929Z,400.00
2023-03-22T09:24:24.925Z,400.00
2023-03-22T09:25:24.902Z,400.00
2023-03-22T09:26:24.925Z,400.00
2023-03-22T09:27:25.649Z,400.00
2023-03-22T09:28:24.882Z,400.00
2023-03-22T09:29:24.941Z,400.00
2023-03-22T09:30:24.830Z,400.00
2023-03-22T09:31:24.939Z,400.00
2023-03-22T09:32:24.817Z,400.00
2023-03-22T09:33:24.795Z,426.00
2023-03-22T09:34:24.757Z,514.00
2023-03-22T09:35:24.837Z,555.00
2023-03-22T09:36:24.748Z,594.00
2023-03-22T09:37:24.725Z,637.00
2023-03-22T09:38:24.707Z,659.00
2023-03-22T09:39:24.722Z,725.00
2023-03-22T09:40:24.885Z,781.00
2023-03-22T09:41:25.197Z,835.00
2023-03-22T09:42:24.642Z,909.00
2023-03-22T09:43:24.635Z,1003.00
2023-03-22T09:44:24.661Z,1081.00
2023-03-22T09:45:24.614Z,1162.00
2023-03-22T09:46:24.805Z,1240.00
2023-03-22T09:47:28.755Z,1302.00
2023-03-22T09:48:25.603Z,1304.00
2023-03-22T09:49:24.546Z,1321.00
2023-03-22T09:50:24.588Z,1370.00
2023-03-22T09:51:24.531Z,1456.00
2023-03-22T09:52:24.570Z,1605.00
2023-03-22T09:53:24.480Z,1313.00
2023-03-22T09:54:24.481Z,1362.00
2023-03-22T09:55:24.469Z,1317.00
2023-03-22T09:56:24.451Z,1377.00
2023-03-22T09:57:24.483Z,1481.00
2023-03-22T09:58:24.458Z,1641.00
2023-03-22T09:59:24.406Z,1878.00
2023-03-22T10:00:24.456Z,1918.00
2023-03-22T10:01:24.587Z,1951.00
2023-03-22T10:02:24.433Z,1985.00
2023-03-22T10:03:24.328Z,2005.00
2023-03-22T10:04:24.370Z,2040.00
2023-03-22T10:05:24.310Z,2072.00
2023-03-22T10:06:24.348Z,2089.00
2023-03-22T10:07:24.226Z,2128.00
2023-03-22T10:08:24.254Z,2136.00
2023-03-22T10:09:24.188Z,2156.00
2023-03-22T10:10:24.184Z,2172.00
2023-03-22T10:11:24.151Z,2187.00
2023-03-22T10:12:24.137Z,2206.00
2023-03-22T10:13:24.091Z,2227.00
2023-03-22T10:14:24.096Z,2237.00
2023-03-22T10:15:24.081Z,2262.00
2023-03-22T10:16:24.076Z,2271.00
2023-03-22T10:17:24.009Z,2288.00
2023-03-22T10:18:23.959Z,2290.00
2023-03-22T10:19:24.006Z,2292.00
2023-03-22T10:20:23.954Z,2298.00
2023-03-22T10:21:23.899Z,2310.00
2023-03-22T10:22:23.882Z,2335.00
2023-03-22T10:23:23.865Z,2375.00
2023-03-22T10:24:23.825Z,2380.00
2023-03-22T10:25:23.836Z,2380.00
2023-03-22T10:26:23.848Z,2386.00
2023-03-22T10:27:23.782Z,2398.00
2023-03-22T10:28:23.741Z,2400.00
2023-03-22T10:29:23.720Z,2418.00
2023-03-22T10:30:23.696Z,2415.00
2023-03-22T10:31:23.717Z,2426.00
2023-03-22T10:32:23.709Z,2426.00
2023-03-22T10:33:23.674Z,2438.00
2023-03-22T10:34:23.620Z,2446.00
2023-03-22T10:35:23.717Z,2446.00
2023-03-22T10:36:23.596Z,2440.00
2023-03-22T10:37:23.597Z,2441.00
2023-03-22T10:38:23.542Z,2444.00
2023-03-22T10:39:23.507Z,2451.00
2023-03-22T10:40:23.497Z,2471.00
2023-03-22T10:41:23.497Z,2472.00
2023-03-22T10:42:23.498Z,2405.00
2023-03-22T10:43:23.444Z,2313.00
2023-03-22T10:44:23.476Z,2301.00
2023-03-22T10:45:23.383Z,2272.00
2023-03-22T10:46:23.386Z,2266.00
2023-03-22T10:47:23.313Z,2267.00
2023-03-22T10:48:23.392Z,2244.00
2023-03-22T10:49:23.274Z,2182.00
2023-03-22T10:50:23.304Z,2117.00
2023-03-22T10:51:23.249Z,2062.00
2023-03-22T10:52:23.241Z,2026.00
2023-03-22T10:53:23.193Z,2014.00
2023-03-22T10:54:25.195Z,2003.00
2023-03-22T10:55:23.165Z,2026.00
2023-03-22T10:56:23.160Z,2026.00
2023-03-22T10:57:23.088Z,1983.00
2023-03-22T10:58:23.174Z,1952.00
2023-03-22T10:59:23.063Z,1945.00
2023-03-22T11:00:23.117Z,1951.00
2023-03-22T11:01:23.181Z,1918.00
2023-03-22T11:02:23.130Z,1899.00
2023-03-22T11:03:23.001Z,1920.00
2023-03-22T11:04:22.977Z,1872.00
2023-03-22T11:05:22.990Z,1731.00
2023-03-22T11:06:22.924Z,1540.00
2023-03-22T11:07:23.200Z,1472.00
2023-03-22T11:08:22.938Z,1474.00
2023-03-22T11:09:22.878Z,1360.00
2023-03-22T11:10:22.895Z,1356.00
2023-03-22T11:11:22.814Z,1374.00
2023-03-22T11:12:22.818Z,1363.00
2023-03-22T11:13:22.814Z,1409.00
2023-03-22T11:14:22.827Z,1458.00
2023-03-22T11:15:22.732Z,1494.00
2023-03-22T11:16:22.789Z,1443.00
2023-03-22T11:17:22.692Z,1460.00
2023-03-22T11:18:22.687Z,1451.00
2023-03-22T11:19:22.647Z,1468.00
2023-03-22T11:20:22.639Z,1469.00
2023-03-22T11:21:22.604Z,1485.00
2023-03-22T11:22:22.578Z,1475.00
2023-03-22T11:23:22.559Z,1449.00
2023-03-22T11:24:22.518Z,1440.00
2023-03-22T11:25:22.588Z,1456.00
2023-03-22T11:26:22.475Z,1455.00
2023-03-22T11:27:22.503Z,1447.00
2023-03-22T11:28:22.454Z,1468.00
2023-03-22T11:29:22.413Z,1388.00
2023-03-22T11:30:22.413Z,1434.00
2023-03-22T11:31:22.398Z,1416.00
2023-03-22T11:32:22.381Z,1476.00
2023-03-22T11:33:22.343Z,1546.00
2023-03-22T11:34:22.295Z,1566.00
2023-03-22T11:35:22.308Z,1430.00
2023-03-22T11:36:22.288Z,1442.00
2023-03-22T11:37:22.233Z,1527.00
2023-03-22T11:38:22.342Z,1640.00
2023-03-22T11:39:22.222Z,1638.00
2023-03-22T11:40:22.240Z,1662.00
2023-03-22T11:41:22.140Z,1731.00
2023-03-22T11:42:22.092Z,1592.00
2023-03-22T11:43:22.057Z,1267.00
2023-03-22T11:44:22.076Z,1235.00
2023-03-22T11:45:22.053Z,1193.00
2023-03-22T11:46:22.033Z,1238.00
2023-03-22T11:47:22.048Z,1186.00
2023-03-22T11:48:22.073Z,1382.00
2023-03-22T11:49:21.909Z,1488.00
2023-03-22T11:50:21.887Z,1601.00
2023-03-22T11:51:21.869Z,1693.00
2023-03-22T11:52:21.849Z,1806.00
2023-03-22T11:53:21.834Z,1948.00
2023-03-22T11:54:21.828Z,2071.00
2023-03-22T11:55:21.860Z,2126.00
2023-03-22T11:56:21.754Z,2171.00
2023-03-22T11:57:21.752Z,2216.00
2023-03-22T11:58:23.592Z,2221.00
2023-03-22T11:59:21.760Z,2224.00
2023-03-22T12:00:21.732Z,2235.00
2023-03-22T12:01:21.754Z,2260.00
2023-03-22T12:02:21.655Z,2309.00
2023-03-22T12:03:21.755Z,2399.00
2023-03-22T12:04:21.623Z,2451.00
2023-03-22T12:05:21.616Z,2481.00
2023-03-22T12:06:21.543Z,2506.00
2023-03-22T12:07:21.523Z,2525.00
2023-03-22T12:08:21.486Z,2530.00